createdAt,value
2019-03-15T00:02:13.763Z,99765.25
2019-03-15T00:04:43.340Z,99767.16
2019-03-15T00:07:12.839Z,99771.00
2019-03-15T00:09:42.374Z,99772.06
2019-03-15T00:12:11.896Z,99772.37
2019-03-15T00:14:41.485Z,99778.25
2019-03-15T00:27:32.652Z,99773.30
2019-03-15T00:30:02.167Z,99770.15
2019-03-15T00:32:31.686Z,99778.34
2019-03-15T00:35:01.278Z,99789.56
2019-03-15T00:37:30.909Z,99794.45
2019-03-15T00:40:00.472Z,99784.45
2019-03-15T00:42:30.008Z,99790.80
2019-03-15T00:44:59.539Z,99783.77
2019-03-15T00:47:29.081Z,99797.05
2019-03-15T00:49:58.623Z,99789.20
2019-03-15T00:52:28.198Z,99807.31
2019-03-15T00:54:57.715Z,99802.04
2019-03-15T00:57:27.246Z,99793.70
2019-03-15T00:59:56.801Z,99787.59
2019-03-15T01:02:26.325Z,99801.64
2019-03-15T01:04:55.851Z,99800.29
2019-03-15T01:07:25.398Z,99796.44
2019-03-15T01:09:55.080Z,99798.28
2019-03-15T01:12:24.583Z,99803.72
2019-03-15T01:14:54.183Z,99803.03
2019-03-15T01:17:23.730Z,99793.70
2019-03-15T01:19:53.259Z,99775.95
2019-03-15T01:22:22.824Z,99775.10
2019-03-15T01:24:52.350Z,99770.75
2019-03-15T01:27:21.885Z,99776.04
2019-03-15T01:29:51.430Z,99772.05
2019-03-15T01:32:21.022Z,99769.14
2019-03-15T01:34:50.614Z,99771.38
2019-03-15T01:37:20.141Z,99778.64
2019-03-15T01:39:50.420Z,99782.59
2019-03-15T01:42:19.964Z,99785.27
2019-03-15T01:44:49.867Z,99785.13
2019-03-15T01:47:19.396Z,99797.22
2019-03-15T01:49:48.957Z,99794.92
2019-03-15T01:52:18.498Z,99795.83
2019-03-15T01:54:48.012Z,99794.84
2019-03-15T01:57:17.580Z,99790.23
2019-03-15T01:59:47.116Z,99796.06
2019-03-15T02:02:16.708Z,99788.77
2019-03-15T02:04:46.265Z,99788.56
2019-03-15T02:07:15.801Z,99784.27
2019-03-15T02:09:45.331Z,99787.02
2019-03-15T02:12:14.874Z,99788.47
2019-03-15T02:14:44.402Z,99788.09
2019-03-15T02:17:14.034Z,99782.36
2019-03-15T02:19:43.602Z,99779.91
2019-03-15T02:22:13.096Z,99779.36
2019-03-15T02:24:42.626Z,99783.80
2019-03-15T02:27:12.411Z,99787.87
2019-03-15T02:29:41.949Z,99784.51
2019-03-15T02:32:12.890Z,99782.22
2019-03-15T02:34:42.512Z,99772.87
2019-03-15T02:37:12.051Z,99784.20
2019-03-15T02:39:41.578Z,99773.27
2019-03-15T02:42:11.102Z,99772.25
2019-03-15T02:44:40.659Z,99772.50
2019-03-15T02:47:10.189Z,99775.32
2019-03-15T02:49:39.809Z,99768.77
2019-03-15T02:52:09.374Z,99770.13
2019-03-15T02:54:38.955Z,99776.17
2019-03-15T02:57:08.767Z,99779.47
2019-03-15T02:59:38.734Z,99783.12
2019-03-15T03:02:08.306Z,99780.16
2019-03-15T03:04:37.836Z,99790.32
2019-03-15T03:07:07.383Z,99793.31
2019-03-15T03:09:36.908Z,99782.83
2019-03-15T03:12:06.476Z,99790.09
2019-03-15T03:14:36.027Z,99792.33
2019-03-15T03:17:05.557Z,99795.69
2019-03-15T03:19:35.130Z,99783.73
2019-03-15T03:22:04.658Z,99784.89
2019-03-15T03:24:34.189Z,99782.73
2019-03-15T03:27:03.721Z,99782.23
2019-03-15T03:29:33.280Z,99784.27
2019-03-15T03:32:02.829Z,99783.06
2019-03-15T03:34:32.338Z,99782.58
2019-03-15T03:37:01.875Z,99777.22
2019-03-15T03:39:31.675Z,99774.02
2019-03-15T03:42:01.202Z,99772.13
2019-03-15T03:44:30.756Z,99767.06
2019-03-15T03:47:00.323Z,99761.11
2019-03-15T03:49:29.858Z,99755.97
2019-03-15T03:51:59.371Z,99753.45
2019-03-15T03:54:29.041Z,99750.71
2019-03-15T03:56:58.525Z,99758.97
2019-03-15T03:59:28.394Z,99763.70
2019-03-15T04:01:57.961Z,99763.39
2019-03-15T04:04:27.758Z,99755.05
2019-03-15T04:06:57.566Z,99752.39
2019-03-15T04:09:27.101Z,99751.00
2019-03-15T04:11:56.667Z,99748.41
2019-03-15T04:14:26.230Z,99745.41
2019-03-15T04:16:55.760Z,99736.45
2019-03-15T04:19:25.338Z,99741.89
2019-03-15T04:21:54.882Z,99737.69
2019-03-15T04:24:24.420Z,99728.89
2019-03-15T04:26:53.940Z,99734.04
2019-03-15T04:29:23.483Z,99741.58
2019-03-15T04:31:53.038Z,99738.45
2019-03-15T04:34:22.563Z,99749.29
2019-03-15T04:36:52.096Z,99750.00
2019-03-15T04:39:21.625Z,99751.74
2019-03-15T04:41:51.238Z,99749.77
2019-03-15T04:44:21.015Z,99742.80
2019-03-15T04:46:50.572Z,99740.53
2019-03-15T04:49:20.101Z,99736.64
2019-03-15T04:51:49.701Z,99732.65
2019-03-15T04:54:19.256Z,99727.30
2019-03-15T04:56:48.799Z,99724.31
2019-03-15T04:59:18.496Z,99718.61
2019-03-15T05:01:48.075Z,99726.06
2019-03-15T05:04:17.610Z,99732.65
2019-03-15T05:06:47.148Z,99725.92
2019-03-15T05:09:16.666Z,99720.36
2019-03-15T05:11:46.207Z,99729.76
2019-03-15T05:14:15.727Z,99721.20
2019-03-15T05:16:45.272Z,99721.95
2019-03-15T05:19:14.805Z,99714.37
2019-03-15T05:21:44.339Z,99715.61
2019-03-15T05:24:13.870Z,99714.31
2019-03-15T05:26:43.406Z,99706.81
2019-03-15T05:29:12.934Z,99700.23
2019-03-15T05:31:42.482Z,99691.52
2019-03-15T05:34:11.996Z,99689.83
2019-03-15T05:36:41.535Z,99685.41
2019-03-15T05:39:11.110Z,99676.02
2019-03-15T05:41:40.637Z,99673.72
2019-03-15T05:44:10.169Z,99680.43
2019-03-15T05:46:39.720Z,99680.73
2019-03-15T05:49:09.268Z,99678.38
2019-03-15T05:51:38.814Z,99672.58
2019-03-15T05:54:08.351Z,99660.73
2019-03-15T05:56:37.896Z,99664.23
2019-03-15T05:59:07.432Z,99666.37
2019-03-15T06:01:36.992Z,99653.08
2019-03-15T06:04:06.570Z,99651.93
2019-03-15T06:06:36.103Z,99653.98
2019-03-15T06:09:07.180Z,99652.84
2019-03-15T06:11:36.712Z,99650.02
2019-03-15T06:14:06.273Z,99657.13
2019-03-15T06:16:35.981Z,99659.72
2019-03-15T06:19:05.504Z,99654.44
2019-03-15T06:21:35.044Z,99650.02
2019-03-15T06:24:04.587Z,99642.98
2019-03-15T06:26:34.129Z,99635.34
2019-03-15T06:29:03.663Z,99630.74
2019-03-15T06:31:33.207Z,99632.34
2019-03-15T06:34:02.734Z,99633.73
2019-03-15T06:36:32.267Z,99620.28
2019-03-15T06:39:01.810Z,99623.25
2019-03-15T06:41:31.368Z,99623.64
2019-03-15T06:44:00.910Z,99628.39
2019-03-15T06:46:30.594Z,99626.94
2019-03-15T06:49:00.170Z,99619.74
2019-03-15T06:51:31.352Z,99622.28
2019-03-15T06:54:10.945Z,99628.39
2019-03-15T06:56:32.197Z,99628.84
2019-03-15T06:59:01.743Z,99627.39
2019-03-15T07:01:31.338Z,99627.63
2019-03-15T07:04:00.904Z,99627.09
2019-03-15T07:06:30.437Z,99614.55
2019-03-15T07:09:00.032Z,99606.84
2019-03-15T07:11:29.671Z,99602.25
2019-03-15T07:13:59.209Z,99612.55
2019-03-15T07:16:28.752Z,99606.45
2019-03-15T07:18:58.272Z,99603.30
2019-03-15T07:21:27.814Z,99596.36
2019-03-15T07:23:57.931Z,99603.70
2019-03-15T07:26:27.603Z,99603.30
2019-03-15T07:28:57.162Z,99597.20
2019-03-15T07:31:26.699Z,99595.20
2019-03-15T07:33:56.245Z,99590.61
2019-03-15T07:36:25.886Z,99578.77
2019-03-15T07:38:55.529Z,99587.16
2019-03-15T07:41:25.565Z,99581.96
2019-03-15T07:43:55.169Z,99562.72
2019-03-15T07:46:24.701Z,99557.27
2019-03-15T07:48:54.245Z,99550.62
2019-03-15T07:51:23.764Z,99555.96
2019-03-15T07:53:53.315Z,99565.52
2019-03-15T07:56:22.837Z,99555.11
2019-03-15T07:58:52.360Z,99560.94
2019-03-15T08:01:21.903Z,99554.05
2019-03-15T08:03:51.454Z,99544.95
2019-03-15T08:06:33.707Z,99536.08
2019-03-15T08:08:52.216Z,99542.65
2019-03-15T08:11:21.762Z,99538.30
2019-03-15T08:13:51.302Z,99530.63
2019-03-15T08:16:20.905Z,99515.19
2019-03-15T08:18:50.440Z,99512.14
2019-03-15T08:21:22.635Z,99516.08
2019-03-15T08:23:51.520Z,99512.25
2019-03-15T08:26:21.052Z,99507.36
2019-03-15T08:28:50.588Z,99505.52
2019-03-15T08:31:23.208Z,99513.84
2019-03-15T08:33:51.399Z,99505.39
2019-03-15T08:36:20.914Z,99502.10
2019-03-15T08:38:50.479Z,99499.11
2019-03-15T08:41:20.021Z,99496.52
2019-03-15T08:43:49.543Z,99495.66
2019-03-15T08:46:19.155Z,99488.25
2019-03-15T08:48:48.647Z,99492.91
2019-03-15T08:51:18.177Z,99481.52
2019-03-15T08:53:47.705Z,99475.77
2019-03-15T08:56:17.272Z,99475.15
2019-03-15T08:58:46.830Z,99465.69
2019-03-15T09:01:16.589Z,99459.99
2019-03-15T09:03:46.126Z,99462.03
2019-03-15T09:06:15.652Z,99460.23
2019-03-15T09:08:45.206Z,99476.07
2019-03-15T09:11:14.740Z,99474.89
2019-03-15T09:13:44.269Z,99468.41
2019-03-15T09:16:13.912Z,99482.11
2019-03-15T09:18:43.439Z,99477.98
2019-03-15T09:21:12.996Z,99478.27
2019-03-15T09:23:42.663Z,99483.31
2019-03-15T09:26:12.175Z,99472.16
2019-03-15T09:28:41.713Z,99477.02
2019-03-15T09:31:11.259Z,99475.65
2019-03-15T09:33:40.758Z,99477.52
2019-03-15T09:36:10.313Z,99469.34
2019-03-15T09:38:41.006Z,99467.23
2019-03-15T09:41:10.537Z,99467.05
2019-03-15T09:43:40.099Z,99460.72
2019-03-15T09:46:09.622Z,99460.81
2019-03-15T09:48:39.169Z,99450.03
2019-03-15T09:51:08.696Z,99438.85
2019-03-15T09:53:38.241Z,99442.47
2019-03-15T09:56:07.770Z,99449.55
2019-03-15T09:58:37.293Z,99453.27
2019-03-15T10:01:06.953Z,99456.46
2019-03-15T10:03:37.148Z,99454.77
2019-03-15T10:06:15.400Z,99452.73
2019-03-15T10:08:37.934Z,99446.77
2019-03-15T10:11:07.462Z,99444.23
2019-03-15T10:13:36.998Z,99448.53
2019-03-15T10:16:06.554Z,99458.12
2019-03-15T10:18:36.077Z,99447.89
2019-03-15T10:21:09.045Z,99450.09
2019-03-15T10:23:36.879Z,99446.48
2019-03-15T10:26:06.398Z,99444.50
2019-03-15T10:28:35.944Z,99452.06
2019-03-15T10:31:05.568Z,99443.09
2019-03-15T10:33:35.096Z,99450.35
2019-03-15T10:36:04.878Z,99451.39
2019-03-15T10:38:34.467Z,99459.69
2019-03-15T10:41:04.009Z,99455.58
2019-03-15T10:43:33.521Z,99443.34
2019-03-15T10:46:05.976Z,99441.12
2019-03-15T10:48:34.340Z,99443.92
2019-03-15T10:51:03.882Z,99452.56
2019-03-15T10:53:33.422Z,99448.34
2019-03-15T10:56:02.978Z,99454.48
2019-03-15T10:58:32.578Z,99447.11
2019-03-15T11:01:02.207Z,99449.80
2019-03-15T11:03:31.756Z,99459.20
2019-03-15T11:06:01.306Z,99456.44
2019-03-15T11:08:30.829Z,99456.73
2019-03-15T11:11:00.364Z,99450.93
2019-03-15T11:13:29.924Z,99448.00
2019-03-15T11:15:59.464Z,99451.33
2019-03-15T11:18:29.001Z,99454.47
2019-03-15T11:20:58.564Z,99458.34
2019-03-15T11:23:28.110Z,99467.28
2019-03-15T11:25:57.656Z,99457.16
2019-03-15T11:28:27.203Z,99466.48
2019-03-15T11:30:56.754Z,99460.16
2019-03-15T11:33:27.224Z,99465.36
2019-03-15T11:35:56.751Z,99468.95
2019-03-15T11:38:26.307Z,99476.59
2019-03-15T11:40:55.851Z,99484.03
2019-03-15T11:43:25.400Z,99482.27
2019-03-15T11:45:57.054Z,99483.45
2019-03-15T11:48:26.620Z,99485.74
2019-03-15T11:50:56.175Z,99482.63
2019-03-15T11:53:25.713Z,99488.58
2019-03-15T11:55:55.258Z,99469.02
2019-03-15T11:58:24.829Z,99474.84
2019-03-15T12:00:54.357Z,99472.87
2019-03-15T12:03:23.893Z,99466.16
2019-03-15T12:05:53.481Z,99462.49
2019-03-15T12:08:23.012Z,99454.39
2019-03-15T12:10:52.567Z,99461.95
2019-03-15T12:13:22.142Z,99447.09
2019-03-15T12:15:51.694Z,99448.56
2019-03-15T12:18:21.243Z,99456.42
2019-03-15T12:20:50.774Z,99452.20
2019-03-15T12:23:20.360Z,99450.89
2019-03-15T12:25:50.009Z,99445.41
2019-03-15T12:28:19.557Z,99451.14
2019-03-15T12:30:49.343Z,99460.22
2019-03-15T12:33:18.868Z,99454.61
2019-03-15T12:35:48.432Z,99462.67
2019-03-15T12:38:17.973Z,99461.48
2019-03-15T12:40:47.549Z,99459.42
2019-03-15T12:43:17.097Z,99459.47
2019-03-15T12:45:46.651Z,99463.34
2019-03-15T12:48:16.216Z,99446.97
2019-03-15T12:50:45.755Z,99450.89
2019-03-15T12:53:15.285Z,99435.91
2019-03-15T12:55:44.838Z,99444.27
2019-03-15T12:58:14.381Z,99449.49
2019-03-15T13:00:43.912Z,99440.59
2019-03-15T13:03:13.446Z,99452.87
2019-03-15T13:05:42.998Z,99441.27
2019-03-15T13:08:12.540Z,99444.55
2019-03-15T13:10:42.089Z,99450.88
2019-03-15T13:13:11.655Z,99441.47
2019-03-15T13:15:41.227Z,99435.80
2019-03-15T13:18:10.746Z,99434.53
2019-03-15T13:20:40.506Z,99429.17
2019-03-15T13:23:10.047Z,99418.60
2019-03-15T13:25:39.621Z,99414.30
2019-03-15T13:28:09.192Z,99404.45
2019-03-15T13:30:38.736Z,99402.70
2019-03-15T13:33:19.488Z,99412.27
2019-03-15T13:35:40.499Z,99414.17
2019-03-15T13:38:10.033Z,99407.55
2019-03-15T13:40:39.832Z,99416.63
2019-03-15T13:43:09.386Z,99419.61
2019-03-15T13:45:39.021Z,99403.17
2019-03-15T13:48:08.569Z,99413.09
2019-03-15T13:50:38.094Z,99419.16
2019-03-15T13:53:07.630Z,99415.75
2019-03-15T13:55:37.173Z,99418.11
2019-03-15T13:58:06.712Z,99407.53
2019-03-15T14:00:36.269Z,99408.95
2019-03-15T14:03:05.816Z,99414.95
2019-03-15T14:05:35.608Z,99423.77
2019-03-15T14:08:11.614Z,99396.11
2019-03-15T14:10:48.807Z,99418.75
2019-03-15T14:13:07.759Z,99397.15
2019-03-15T14:15:37.284Z,99399.66
2019-03-15T14:18:06.818Z,99399.39
2019-03-15T14:20:36.385Z,99392.45
2019-03-15T14:23:05.947Z,99409.13
2019-03-15T14:25:35.517Z,99396.84
2019-03-15T14:28:05.073Z,99402.11
2019-03-15T14:30:34.683Z,99410.47
2019-03-15T14:33:04.209Z,99408.09
2019-03-15T14:35:33.768Z,99405.56
2019-03-15T14:38:03.640Z,99415.55
2019-03-15T14:40:33.122Z,99392.11
2019-03-15T14:43:02.694Z,99402.45
2019-03-15T14:45:32.262Z,99404.59
2019-03-15T14:48:01.776Z,99411.13
2019-03-15T14:50:31.378Z,99423.05
2019-03-15T14:53:00.927Z,99428.53
2019-03-15T14:55:30.465Z,99428.84
2019-03-15T14:58:00.633Z,99430.28
2019-03-15T15:00:30.233Z,99433.89
2019-03-15T15:02:59.761Z,99437.33
2019-03-15T15:05:29.312Z,99429.13
2019-03-15T15:07:59.113Z,99438.76
2019-03-15T15:10:28.684Z,99444.84
2019-03-15T15:12:58.215Z,99436.24
2019-03-15T15:15:27.753Z,99444.91
2019-03-15T15:17:57.294Z,99433.50
2019-03-15T15:20:26.858Z,99440.61
2019-03-15T15:22:56.394Z,99423.83
2019-03-15T15:25:25.977Z,99427.05
2019-03-15T15:28:04.484Z,99429.07
2019-03-15T15:30:26.780Z,99428.75
2019-03-15T15:32:57.248Z,99420.03
2019-03-15T15:35:26.773Z,99428.23
2019-03-15T15:37:56.306Z,99416.94
2019-03-15T15:40:25.874Z,99427.27
2019-03-15T15:42:55.413Z,99413.83
2019-03-15T15:45:24.954Z,99423.56
2019-03-15T15:47:54.504Z,99429.61
2019-03-15T15:50:24.057Z,99434.53
2019-03-15T15:52:53.589Z,99427.86
2019-03-15T15:55:23.131Z,99417.85
2019-03-15T15:57:52.704Z,99418.05
2019-03-15T16:00:22.273Z,99419.48
2019-03-15T16:02:51.785Z,99417.52
2019-03-15T16:05:21.832Z,99423.25
2019-03-15T16:07:51.361Z,99413.24
2019-03-15T16:10:20.935Z,99435.97
2019-03-15T16:12:50.478Z,99424.28
2019-03-15T16:15:20.678Z,99422.00
2019-03-15T16:17:50.541Z,99416.36
2019-03-15T16:20:20.071Z,99426.75
2019-03-15T16:22:49.716Z,99433.45
2019-03-15T16:25:21.033Z,99421.25
2019-03-15T16:27:50.576Z,99404.08
2019-03-15T16:30:22.903Z,99416.57
2019-03-15T16:32:52.446Z,99426.70
2019-03-15T16:35:22.006Z,99442.45
2019-03-15T16:37:51.553Z,99463.05
2019-03-15T16:40:24.111Z,99482.72
2019-03-15T16:42:53.654Z,99475.79
2019-03-15T16:45:32.071Z,99481.23
2019-03-15T16:48:01.605Z,99471.66
2019-03-15T16:50:31.171Z,99476.67
2019-03-15T16:53:00.679Z,99489.95
2019-03-15T16:55:30.250Z,99494.88
2019-03-15T16:57:59.807Z,99504.02
2019-03-15T17:00:29.351Z,99518.23
2019-03-15T17:02:58.883Z,99527.50
2019-03-15T17:05:28.437Z,99533.71
2019-03-15T17:07:58.017Z,99537.51
2019-03-15T17:10:27.561Z,99546.66
2019-03-15T17:12:57.091Z,99554.38
2019-03-15T17:15:29.947Z,99556.70
2019-03-15T17:17:59.527Z,99560.09
2019-03-15T17:20:29.058Z,99565.31
2019-03-15T17:22:58.846Z,99567.58
2019-03-15T17:25:28.389Z,99575.80
2019-03-15T17:27:57.933Z,99576.94
2019-03-15T17:30:27.626Z,99591.13
2019-03-15T17:32:57.166Z,99594.97
2019-03-15T17:35:26.700Z,99612.79
2019-03-15T17:37:56.233Z,99614.09
2019-03-15T17:40:25.777Z,99615.78
2019-03-15T17:42:55.300Z,99614.86
2019-03-15T17:45:24.857Z,99611.67
2019-03-15T17:47:54.396Z,99612.53
2019-03-15T17:50:28.212Z,99621.83
2019-03-15T17:52:57.774Z,99631.06
2019-03-15T17:55:28.205Z,99637.31
2019-03-15T17:57:57.739Z,99641.03
2019-03-15T18:00:39.241Z,99649.50
2019-03-15T18:03:20.736Z,99652.22
2019-03-15T18:05:40.754Z,99662.45
2019-03-15T18:08:10.308Z,99668.80
2019-03-15T18:10:39.840Z,99676.48
2019-03-15T18:13:09.542Z,99681.31
2019-03-15T18:15:39.133Z,99683.11
2019-03-15T18:18:08.685Z,99687.66
2019-03-15T18:20:38.227Z,99704.80
2019-03-15T18:23:07.747Z,99714.09
2019-03-15T18:25:37.306Z,99723.69
2019-03-15T18:28:06.906Z,99729.58
2019-03-15T18:30:36.442Z,99738.89
2019-03-15T18:33:05.994Z,99754.25
2019-03-15T18:35:35.526Z,99749.64
2019-03-15T18:38:05.182Z,99740.20
2019-03-15T18:40:34.727Z,99742.34
2019-03-15T18:43:04.270Z,99732.75
2019-03-15T18:45:34.726Z,99737.59
2019-03-15T18:48:04.341Z,99741.59
2019-03-15T18:50:33.878Z,99737.19
2019-03-15T18:53:03.442Z,99742.05
2019-03-15T18:55:32.970Z,99747.28
2019-03-15T18:58:02.544Z,99745.91
2019-03-15T19:00:32.072Z,99753.61
2019-03-15T19:03:01.609Z,99765.71
2019-03-15T19:05:32.153Z,99767.98
2019-03-15T19:08:01.687Z,99769.27
2019-03-15T19:10:31.212Z,99790.66
2019-03-15T19:13:00.764Z,99791.62
2019-03-15T19:15:30.293Z,99790.53
2019-03-15T19:17:59.848Z,99785.95
2019-03-15T19:20:29.421Z,99790.88
2019-03-15T19:22:58.985Z,99790.15
2019-03-15T19:25:28.541Z,99797.91
2019-03-15T19:27:58.119Z,99803.48
2019-03-15T19:30:27.671Z,99787.92
2019-03-15T19:32:58.188Z,99808.00
2019-03-15T19:35:27.737Z,99813.68
2019-03-15T19:37:57.281Z,99828.89
2019-03-15T19:40:26.807Z,99822.64
2019-03-15T19:42:56.336Z,99834.11
2019-03-15T19:45:25.889Z,99840.95
2019-03-15T19:47:55.679Z,99846.12
2019-03-15T19:50:25.249Z,99862.16
2019-03-15T19:52:54.772Z,99871.07
2019-03-15T19:55:24.298Z,99874.36
2019-03-15T19:57:53.835Z,99880.42
2019-03-15T20:00:23.447Z,99876.67
2019-03-15T20:02:53.009Z,99873.77
2019-03-15T20:05:24.507Z,99887.31
2019-03-15T20:07:54.030Z,99891.61
2019-03-15T20:10:23.565Z,99897.29
2019-03-15T20:12:53.131Z,99909.22
2019-03-15T20:15:22.655Z,99920.02
2019-03-15T20:17:52.206Z,99925.09
2019-03-15T20:20:21.814Z,99932.78
2019-03-15T20:22:51.347Z,99923.36
2019-03-15T20:25:20.912Z,99914.83
2019-03-15T20:27:50.523Z,99927.63
2019-03-15T20:30:26.604Z,99931.02
2019-03-15T20:32:55.315Z,99934.31
2019-03-15T20:35:24.858Z,99933.41
2019-03-15T20:37:54.429Z,99935.78
2019-03-15T20:40:23.940Z,99938.61
2019-03-15T20:42:53.487Z,99936.46
2019-03-15T20:45:30.372Z,99945.84
2019-03-15T20:47:59.905Z,99942.39
2019-03-15T20:50:29.486Z,99952.20
2019-03-15T20:53:08.542Z,99956.96
2019-03-15T20:55:30.344Z,99951.61
2019-03-15T20:57:59.962Z,99961.96
2019-03-15T21:00:36.055Z,99960.73
2019-03-15T21:03:00.748Z,99954.03
2019-03-15T21:05:30.516Z,99954.58
2019-03-15T21:08:00.048Z,99953.66
2019-03-15T21:10:29.574Z,99958.88
2019-03-15T21:12:59.121Z,99968.76
2019-03-15T21:15:28.915Z,99976.23
2019-03-15T21:17:58.451Z,99972.78
2019-03-15T21:20:27.968Z,99972.63
2019-03-15T21:22:57.559Z,99959.66
2019-03-15T21:25:27.099Z,99962.72
2019-03-15T21:27:56.645Z,99972.39
2019-03-15T21:30:27.681Z,99968.63
2019-03-15T21:32:57.501Z,99961.05
2019-03-15T21:35:27.044Z,99953.45
2019-03-15T21:37:56.834Z,99956.39
2019-03-15T21:40:26.403Z,99966.73
2019-03-15T21:42:56.194Z,99966.73
2019-03-15T21:45:26.651Z,99969.19
2019-03-15T21:47:56.172Z,99977.39
2019-03-15T21:50:25.717Z,99984.83
2019-03-15T21:52:55.273Z,99984.28
2019-03-15T21:55:24.791Z,99989.13
2019-03-15T21:57:54.568Z,99989.34
2019-03-15T22:00:26.734Z,99983.83
2019-03-15T22:02:56.302Z,99981.52
2019-03-15T22:05:26.790Z,99984.06
2019-03-15T22:07:56.580Z,99987.98
2019-03-15T22:10:29.114Z,99994.56
2019-03-15T22:12:58.663Z,99995.95
2019-03-15T22:15:28.214Z,100006.29
2019-03-15T22:17:57.858Z,100014.35
2019-03-15T22:20:27.388Z,100021.02
2019-03-15T22:22:56.935Z,100016.95
2019-03-15T22:25:26.493Z,100021.62
2019-03-15T22:27:56.015Z,100021.72
2019-03-15T22:30:25.557Z,100027.47
2019-03-15T22:32:55.082Z,100033.98
2019-03-15T22:35:24.869Z,100030.74
2019-03-15T22:37:54.703Z,100035.66
2019-03-15T22:40:25.877Z,100029.74
2019-03-15T22:42:55.404Z,100023.32
2019-03-15T22:45:24.946Z,100029.44
2019-03-15T22:47:54.490Z,100039.05
2019-03-15T22:50:24.955Z,100043.56
2019-03-15T22:52:54.505Z,100042.31
2019-03-15T22:55:24.057Z,100046.47
2019-03-15T22:57:59.835Z,100061.72
2019-03-15T23:00:30.896Z,100054.74
2019-03-15T23:03:00.738Z,100050.78
2019-03-15T23:05:30.439Z,100068.02
2019-03-15T23:08:00.020Z,100076.83
2019-03-15T23:10:29.609Z,100083.20
2019-03-15T23:12:59.176Z,100087.70
2019-03-15T23:15:28.746Z,100087.16
2019-03-15T23:17:58.265Z,100091.52
2019-03-15T23:20:27.826Z,100093.92
2019-03-15T23:22:57.401Z,100103.25
2019-03-15T23:25:26.951Z,100101.89
2019-03-15T23:27:56.496Z,100112.69
2019-03-15T23:30:28.450Z,100108.46
2019-03-15T23:32:58.005Z,100106.09
2019-03-15T23:35:27.565Z,100106.25
2019-03-15T23:37:57.117Z,100100.89
2019-03-15T23:40:26.646Z,100098.73
2019-03-15T23:42:56.230Z,100105.80
2019-03-15T23:45:25.855Z,100107.86
2019-03-15T23:47:55.442Z,100104.41
2019-03-15T23:50:25.037Z,100098.59
2019-03-15T23:52:54.585Z,100108.71
2019-03-15T23:55:24.123Z,100106.56
2019-03-15T23:57:53.911Z,100108.95
